Latest Coastal Weather Observations for Tasman Island

IDT60701

Issued at 3:02 am EST Saturday 29 August 2015 (issued every 10 minutes, with the page automatically refreshed every 10 minutes)

About coastal observations | Map of coastal stations | Coastal observations for TAS | Marine services | Other Formats
Station Details ID: 094155 Name: TASMAN ISLAND Lat: -43.24 Lon: 148.00 Height: 240.0 m
Data from the previous 72 hours. | See also: Recent months at Tasman Island
Date/Time
EST
Temp

°C
Wind Pressure Rain
since 9am
mm
Weather Cloud Vis
km
Sea
Height
m
Swell
Dir
 
Speed
knots
Gust
knots
hPa Trend Height
m
Period
s
Dir
29/03:00am 5.1 SSW 9 15 1017.6 - 6.2 Recent precip. - - - - - -
29/02:30am 5.1 S 12 20 1017.8 - 6.2 - - - - - - -
29/02:00am 4.9 S 13 23 1017.8 - 6.0 - - - - - - -
29/01:30am 4.7 SSE 16 25 1017.6 - 5.8 - - - - - - -
29/01:01am 5.2 S 17 27 1017.0 - 5.4 - - - - - - -
29/01:00am 5.2 S 17 27 1017.0 - 5.4 - - - - - - -
29/12:30am 5.7 S 16 27 1017.0 - 5.2 - - - - - - -
29/12:20am 5.9 S 15 26 1016.9 - 5.0 - - - - - - -
29/12:00am 5.4 S 17 27 1016.7 - 4.6 - - - - - - -
 
Date/Time
EST
Temp

°C
Wind Pressure Rain
since 9am
mm
Weather Cloud Vis
km
Sea
Height
m
Swell
Dir
 
Speed
knots
Gust
knots
hPa Trend Height
m
Period
s
Dir
28/11:38pm 6.5 S 16 29 1016.6 - 4.6 - - - - - - -
28/11:30pm 6.3 S 17 27 1016.5 - 4.6 - - - - - - -
28/11:00pm 5.6 S 19 31 1016.2 - 4.6 - - - - - - -
28/10:30pm 5.5 SSW 23 38 1016.3 - 4.6 - - - - - - -
28/10:00pm 5.2 SW 28 45 1016.2 - 4.0 - - - - - - -
28/09:30pm 5.3 SW 32 49 1015.8 - 3.8 - - - - - - -
28/09:00pm 5.0 SW 32 49 1016.7 - 3.6 Rain - - - - - -
28/08:30pm 3.8 SSW 32 46 1017.1 - 3.0 - - - - - - -
28/08:10pm 4.6 SW 19 45 1017.3 - 2.2 - - - - - - -
28/08:00pm 3.3 SW 22 48 1017.9 - 2.2 - - - - - - -
28/07:54pm 3.5 SW 31 51 1018.0 - 2.2 - - - - - - -
28/07:51pm 3.4 SW 33 51 1018.0 - 2.0 - - - - - - -
28/07:50pm 3.6 SW 32 51 1017.9 - 1.8 - - - - - - -
28/07:42pm 3.8 SW 23 45 1018.0 - 1.8 - - - - - - -
28/07:35pm 4.3 SW 27 43 1018.3 - 1.6 - - - - - - -
28/07:30pm 4.1 SW 30 45 1018.4 - 1.6 - - - - - - -
28/07:00pm 3.8 SW 28 42 1019.2 - 1.4 - - - - - - -
28/06:45pm 3.5 SSW 26 45 1019.4 - 1.4 - - - - - - -
28/06:30pm 2.6 SSW 23 40 1020.1 - 1.2 - - - - - - -
28/06:00pm 4.4 SW 25 40 1020.3 - 0.6 Recent precip. - - - - - -
28/05:30pm 3.2 SSW 27 39 1020.7 - 0.4 - - - - - - -
28/05:00pm 3.8 SW 26 40 1021.0 - 0.4 - - - - - - -
28/04:30pm 4.2 SSW 24 45 1021.1 - 0.4 - - - - - - -
28/04:00pm 4.8 SSW 25 41 1021.7 - 0.4 - - - - - - -
28/03:30pm 4.1 SSW 24 37 1022.1 - 0.4 - - - - - - -
28/03:00pm 2.9 SSW 23 41 1022.2 - 0.4 Rain - - - - - -
28/02:30pm 4.8 SSW 23 33 1022.7 - 0.0 - - - - - - -
28/02:11pm 4.3 SSW 29 41 1022.7 - 0.0 - - - - - - -
28/02:08pm 4.6 SSW 27 41 1022.5 - 0.0 - - - - - - -
28/02:02pm 5.8 SSW 22 33 1022.7 - 0.0 - - - - - - -
28/02:00pm 6.1 SSW 23 33 1022.9 - 0.0 - - - - - - -
28/01:40pm 5.7 SSW 20 31 1023.2 - 0.0 - - - - - - -
28/01:30pm 4.8 SSW 20 27 1023.3 - 0.0 - - - - - - -
28/01:00pm 5.0 S 19 32 1023.7 - 0.0 - - - - - - -
28/12:31pm 5.6 SSW 24 36 1023.9 - 0.0 - - - - - - -
28/12:30pm 5.8 SSW 24 33 1023.8 - 0.0 - - - - - - -
28/12:06pm 5.8 SSW 21 31 1024.2 - 0.0 - - - - - - -
28/12:00pm 6.3 SSW 22 32 1024.5 - 0.0 - - - - - - -
28/11:47am 6.5 SSW 20 32 1024.6 - 0.0 - - - - - - -
28/11:30am 6.2 SSW 20 29 1024.8 - 0.0 - - - - - - -
28/11:03am 7.3 SSW 16 29 1024.8 - 0.0 - - - - - - -
28/11:00am 7.1 SSW 17 25 1024.9 - 0.0 - - - - - - -
28/10:30am 6.1 S 16 29 1024.9 - 0.0 - - - - - - -
28/10:05am 5.5 S 15 25 1025.0 - 0.0 - - - - - - -
28/10:00am 5.6 SSW 15 23 1025.0 - 0.0 - - - - - - -
28/09:30am 5.7 S 17 28 1025.0 - 0.0 - - - - - - -
28/09:06am 5.2 SSW 15 26 1024.9 - 0.0 - - - - - - -
28/09:00am 5.5 SSW 15 23 1025.1 - 0.6 - - - - - - -
28/08:33am 4.2 S 15 31 1024.8 - 0.6 - - - - - - -
28/08:30am 4.3 SSW 13 26 1024.8 - 0.6 - - - - - - -
28/08:00am 4.7 SSW 21 33 1024.8 - 0.6 - - - - - - -
28/07:39am 4.8 SSW 15 25 1024.7 - 0.6 - - - - - - -
28/07:30am 4.8 SSW 15 23 1024.7 - 0.6 - - - - - - -
28/07:00am 3.8 SSW 16 27 1024.5 - 0.6 - - - - - - -
28/06:32am 3.5 SSW 16 29 1024.2 - 0.6 - - - - - - -
28/06:30am 3.5 S 14 23 1024.2 - 0.6 - - - - - - -
28/06:05am 5.0 SSW 17 27 1023.9 - 0.6 - - - - - - -
28/06:00am 4.8 SSW 16 25 1023.9 - 0.6 - - - - - - -
28/05:34am 4.9 SSW 19 30 1023.6 - 0.6 - - - - - - -
28/05:30am 4.9 SSW 19 28 1023.6 - 0.6 - - - - - - -
28/05:00am 4.9 SSW 20 30 1023.4 - 0.6 - - - - - - -
28/04:46am 5.0 SSW 21 32 1023.3 - 0.6 - - - - - - -
28/04:30am 5.4 SSW 21 30 1023.2 - 0.6 - - - - - - -
28/04:05am 5.4 SSW 17 27 1023.1 - 0.4 - - - - - - -
28/04:00am 5.3 SSW 15 25 1023.0 - 0.4 - - - - - - -
28/03:32am 5.5 S 15 26 1022.9 - 0.4 - - - - - - -
28/03:30am 5.3 S 14 26 1022.9 - 0.4 - - - - - - -
28/03:05am 5.3 S 15 29 1022.9 - 0.4 - - - - - - -
28/03:00am 5.2 S 15 25 1023.0 - 0.4 Recent precip. - - - - - -
28/02:46am 5.2 S 15 26 1022.8 - 0.4 - - - - - - -
28/02:30am 5.6 S 14 27 1022.9 - 0.2 - - - - - - -
28/02:00am 5.6 S 15 28 1022.6 - 0.2 - - - - - - -
28/01:30am 6.0 S 16 27 1022.4 - 0.2 - - - - - - -
28/01:00am 6.0 S 15 28 1022.2 - 0.2 - - - - - - -
28/12:30am 6.5 S 16 25 1022.2 - 0.2 - - - - - - -
28/12:01am 6.6 S 15 25 1022.1 - 0.2 - - - - - - -
28/12:00am 6.6 S 16 25 1022.1 - 0.2 Recent precip. - - - - - -
 
Date/Time
EST
Temp

°C
Wind Pressure Rain
since 9am
mm
Weather Cloud Vis
km
Sea
Height
m
Swell
Dir
 
Speed
knots
Gust
knots
hPa Trend Height
m
Period
s
Dir
27/11:40pm 7.5 SW 13 27 1021.9 - 0.0 - - - - - - -
27/11:30pm 7.7 WSW 8 21 1022.0 - 0.0 - - - - - - -
27/11:00pm 7.5 SW 9 20 1022.2 - 0.0 - - - - - - -
27/10:30pm 7.8 SW 10 19 1022.4 - 0.0 - - - - - - -
27/10:00pm 8.0 SW 9 24 1022.3 - 0.0 - - - - - - -
27/09:30pm 7.9 SW 8 17 1022.7 - 0.0 - - - - - - -
27/09:00pm 8.2 SW 13 24 1022.7 - 0.0 - - - - - - -
27/08:30pm 8.4 SW 9 16 1022.6 - 0.0 - - - - - - -
27/08:00pm 8.4 SW 13 19 1022.6 - 0.0 - - - - - - -
27/07:30pm 8.3 SW 13 19 1022.5 - 0.0 - - - - - - -
27/07:00pm 8.3 SW 11 17 1022.3 - 0.0 - - - - - - -
27/06:30pm 8.1 SSW 9 14 1022.1 - 0.0 - - - - - - -
27/06:00pm 8.2 SSW 9 13 1022.1 - 0.0 - - - - - - -
27/05:30pm 7.9 SSW 8 12 1022.0 - 0.0 - - - - - - -
27/05:00pm 8.1 SSW 8 13 1021.9 - 0.0 - - - - - - -
27/04:30pm 8.2 SW 7 11 1021.8 - 0.0 - - - - - - -
27/04:00pm 8.4 SW 9 12 1021.8 - 0.0 - - - - - - -
27/03:30pm 8.7 SW 7 11 1021.7 - 0.0 - - - - - - -
27/03:00pm 9.0 SW 9 11 1021.8 - 0.0 - - - - - - -
27/02:30pm 8.4 SW 5 9 1021.8 - 0.0 - - - - - - -
27/02:00pm 8.4 WSW 5 8 1021.9 - 0.0 - - - - - - -
27/01:30pm 8.8 WSW 6 9 1022.1 - 0.0 - - - - - - -
27/01:00pm 8.9 WSW 6 8 1022.3 - 0.0 - - - - - - -
27/12:30pm 8.8 WSW 6 8 1022.7 - 0.0 - - - - - - -
27/12:00pm 9.3 WSW 4 6 1022.9 - 0.0 - - - - - - -
27/11:30am 9.1 WSW 4 6 1023.3 - 0.0 - - - - - - -
27/11:00am 8.5 W 4 6 1023.6 - 0.0 - - - - - - -
27/10:30am 8.4 W 5 7 1023.6 - 0.0 - - - - - - -
27/10:00am 8.4 W 4 5 1023.8 - 0.0 - - - - - - -
27/09:30am 8.0 W 4 5 1023.9 - 0.0 - - - - - - -
27/09:00am 7.4 W 4 6 1024.2 - 0.2 - - - - - - -
27/08:30am 7.2 WSW 5 7 1024.3 - 0.2 - - - - - - -
27/08:00am 7.1 W 5 6 1024.3 - 0.2 - - - - - - -
27/07:30am 7.1 W 5 7 1024.0 - 0.2 - - - - - - -
27/07:00am 7.0 W 3 5 1023.8 - 0.2 - - - - - - -
27/06:30am 7.1 W 5 7 1023.8 - 0.2 - - - - - - -
27/06:00am 7.1 W 6 7 1023.7 - 0.2 - - - - - - -
27/05:30am 6.8 W 5 7 1023.7 - 0.2 - - - - - - -
27/05:00am 7.0 W 4 7 1023.8 - 0.2 - - - - - - -
27/04:30am 7.4 WNW 1 3 1023.9 - 0.2 - - - - - - -
27/04:00am 8.4 NNW 3 3 1024.2 - 0.2 - - - - - - -
27/03:30am 7.9 N 4 5 1024.5 - 0.2 - - - - - - -
27/03:00am 8.0 NNW 3 4 1024.8 - 0.2 - - - - - - -
27/02:30am 7.7 N 3 4 1025.1 - 0.2 - - - - - - -
27/02:00am 7.6 N 4 6 1025.6 - 0.2 - - - - - - -
27/01:30am 8.0 NNW 4 7 1026.0 - 0.2 - - - - - - -
27/01:00am 8.2 N 7 11 1026.2 - 0.2 - - - - - - -
27/12:30am 8.6 N 9 13 1026.3 - 0.2 - - - - - - -
27/12:00am 9.0 N 14 20 1026.5 - 0.2 - - - - - - -
 
Date/Time
EST
Temp

°C
Wind Pressure Rain
since 9am
mm
Weather Cloud Vis
km
Sea
Height
m
Swell
Dir
 
Speed
knots
Gust
knots
hPa Trend Height
m
Period
s
Dir
26/11:30pm 8.8 N 15 20 1026.6 - 0.2 - - - - - - -
26/11:00pm 8.8 N 16 22 1026.8 - 0.2 - - - - - - -
26/10:30pm 8.8 N 16 22 1027.1 - 0.2 - - - - - - -
26/10:00pm 8.8 N 14 20 1027.4 - 0.2 - - - - - - -
26/09:30pm 8.7 N 15 19 1027.6 - 0.2 - - - - - - -
26/09:00pm 8.5 N 14 17 1027.5 - 0.2 - - - - - - -
26/08:30pm 8.7 N 15 19 1027.5 - 0.2 - - - - - - -
26/08:00pm 8.7 N 15 19 1027.5 - 0.2 - - - - - - -
26/07:30pm 8.7 NNE 15 19 1027.5 - 0.2 - - - - - - -
26/07:00pm 8.6 NNE 15 19 1027.5 - 0.2 - - - - - - -
26/06:30pm 8.6 NNE 13 17 1027.5 - 0.2 - - - - - - -
26/06:00pm 8.5 NNE 12 16 1027.6 - 0.2 - - - - - - -
26/05:30pm 8.5 NNE 12 16 1027.7 - 0.2 - - - - - - -
26/05:00pm 8.8 NNE 12 17 1027.7 - 0.2 - - - - - - -
26/04:30pm 9.2 NNE 13 17 1027.7 - 0.2 - - - - - - -
26/04:00pm 9.7 NNE 12 17 1027.8 - 0.2 - - - - - - -
26/03:30pm 10.0 NNE 13 19 1028.0 - 0.2 - - - - - - -
26/03:00pm 10.4 NNE 14 19 1028.1 - 0.2 - - - - - - -
26/02:30pm 10.7 NNE 14 19 1028.3 - 0.2 - - - - - - -
26/02:00pm 10.9 NNE 14 19 1028.5 - 0.2 - - - - - - -
26/01:30pm 10.6 NNE 14 19 1028.9 - 0.2 - - - - - - -
26/01:00pm 10.6 N 15 19 1029.2 - 0.0 - - - - - - -
26/12:30pm 10.4 N 17 22 1029.6 - 0.0 - - - - - - -
26/12:00pm 10.4 N 15 21 1029.9 - 0.0 - - - - - - -
26/11:30am 10.2 N 18 23 1030.2 - 0.0 - - - - - - -
26/11:00am 10.1 N 17 24 1030.4 - 0.0 - - - - - - -
26/10:30am 10.2 N 15 21 1030.5 - 0.0 - - - - - - -
26/10:00am 10.3 N 13 18 1030.6 - 0.0 - - - - - - -
26/09:30am 9.5 N 15 20 1030.6 - 0.0 - - - - - - -
26/09:00am 9.3 N 16 21 1030.6 - 0.0 - - - - - - -
26/08:30am 8.8 N 16 20 1030.6 - 0.0 - - - - - - -
26/08:00am 8.4 N 16 20 1030.6 - 0.0 - - - - - - -
26/07:30am 7.9 N 13 18 1030.6 - 0.0 - - - - - - -
26/07:00am 7.6 N 15 21 1030.3 - 0.0 - - - - - - -
26/06:30am 7.4 N 16 21 1030.1 - 0.0 - - - - - - -
26/06:00am 7.4 N 14 18 1030.0 - 0.0 - - - - - - -
26/05:30am 7.4 N 14 19 1030.0 - 0.0 - - - - - - -
26/05:00am 7.4 N 12 16 1030.1 - 0.0 - - - - - - -
26/04:30am 7.4 N 9 13 1030.1 - 0.0 - - - - - - -
26/04:00am 6.6 N 7 10 1030.0 - 0.0 - - - - - - -
26/03:30am 6.5 NNW 6 9 1030.2 - 0.0 - - - - - - -

Other Formats:

Comma delimited format used in spreadsheet applications
http://www.bom.gov.au/fwo/IDT60701/IDT60701.95986.axf

JavaScript Object Notation format (JSON) in row-major order
http://www.bom.gov.au/fwo/IDT60701/IDT60701.95986.json